sensor_id;sensor_type;location;lat;lon;timestamp;P1;durP1;ratioP1;P2;durP2;ratioP2
42514;SDS011;28144;49.920;18.730;2022-09-13T00:00:33;17.70;;;8.13;;
42514;SDS011;28144;49.920;18.730;2022-09-13T00:03:19;18.10;;;11.23;;
42514;SDS011;28144;49.920;18.730;2022-09-13T00:05:46;16.20;;;9.90;;
42514;SDS011;28144;49.920;18.730;2022-09-13T00:08:12;17.67;;;9.70;;
42514;SDS011;28144;49.920;18.730;2022-09-13T00:10:38;18.13;;;9.30;;
42514;SDS011;28144;49.920;18.730;2022-09-13T00:13:06;13.88;;;8.07;;
42514;SDS011;28144;49.920;18.730;2022-09-13T00:15:34;19.75;;;9.27;;
42514;SDS011;28144;49.920;18.730;2022-09-13T00:18:00;16.75;;;9.00;;
42514;SDS011;28144;49.920;18.730;2022-09-13T00:20:26;12.68;;;8.05;;
42514;SDS011;28144;49.920;18.730;2022-09-13T00:22:52;14.90;;;8.60;;
42514;SDS011;28144;49.920;18.730;2022-09-13T00:25:17;15.00;;;8.37;;
42514;SDS011;28144;49.920;18.730;2022-09-13T00:27:44;17.10;;;9.07;;
42514;SDS011;28144;49.920;18.730;2022-09-13T00:30:09;13.30;;;8.40;;
42514;SDS011;28144;49.920;18.730;2022-09-13T00:32:37;12.25;;;8.07;;
42514;SDS011;28144;49.920;18.730;2022-09-13T00:35:03;20.10;;;8.25;;
42514;SDS011;28144;49.920;18.730;2022-09-13T00:37:29;16.25;;;7.75;;
42514;SDS011;28144;49.920;18.730;2022-09-13T00:39:56;18.85;;;8.07;;
42514;SDS011;28144;49.920;18.730;2022-09-13T00:42:26;15.37;;;8.27;;
42514;SDS011;28144;49.920;18.730;2022-09-13T00:47:50;17.67;;;8.40;;
42514;SDS011;28144;49.920;18.730;2022-09-13T00:50:23;30.60;;;9.18;;
42514;SDS011;28144;49.920;18.730;2022-09-13T00:53:14;20.73;;;8.15;;
42514;SDS011;28144;49.920;18.730;2022-09-13T00:58:36;18.13;;;8.30;;
42514;SDS011;28144;49.920;18.730;2022-09-13T01:01:16;13.35;;;7.78;;
42514;SDS011;28144;49.920;18.730;2022-09-13T01:03:43;17.55;;;8.57;;
42514;SDS011;28144;49.920;18.730;2022-09-13T01:08:36;21.25;;;7.95;;
42514;SDS011;28144;49.920;18.730;2022-09-13T01:11:04;17.25;;;7.88;;
42514;SDS011;28144;49.920;18.730;2022-09-13T01:13:32;13.95;;;8.02;;
42514;SDS011;28144;49.920;18.730;2022-09-13T01:15:58;16.52;;;8.57;;
42514;SDS011;28144;49.920;18.730;2022-09-13T01:18:24;12.10;;;7.97;;
42514;SDS011;28144;49.920;18.730;2022-09-13T01:20:59;19.15;;;8.07;;
42514;SDS011;28144;49.920;18.730;2022-09-13T01:42:38;19.02;;;7.97;;
42514;SDS011;28144;49.920;18.730;2022-09-13T01:45:30;13.45;;;7.43;;
42514;SDS011;28144;49.920;18.730;2022-09-13T01:48:16;19.77;;;8.85;;
42514;SDS011;28144;49.920;18.730;2022-09-13T01:51:10;15.07;;;8.90;;
42514;SDS011;28144;49.920;18.730;2022-09-13T01:53:49;15.68;;;8.38;;
42514;SDS011;28144;49.920;18.730;2022-09-13T01:59:14;10.13;;;7.50;;
42514;SDS011;28144;49.920;18.730;2022-09-13T02:01:54;12.38;;;7.38;;
42514;SDS011;28144;49.920;18.730;2022-09-13T02:04:26;14.98;;;7.65;;
42514;SDS011;28144;49.920;18.730;2022-09-13T02:07:11;15.10;;;6.78;;
42514;SDS011;28144;49.920;18.730;2022-09-13T02:12:11;14.15;;;7.35;;
42514;SDS011;28144;49.920;18.730;2022-09-13T02:14:43;11.95;;;7.05;;
42514;SDS011;28144;49.920;18.730;2022-09-13T02:17:17;17.73;;;7.43;;
42514;SDS011;28144;49.920;18.730;2022-09-13T02:19:58;14.52;;;8.00;;
42514;SDS011;28144;49.920;18.730;2022-09-13T02:22:30;15.57;;;7.88;;
42514;SDS011;28144;49.920;18.730;2022-09-13T02:24:59;11.90;;;7.38;;
42514;SDS011;28144;49.920;18.730;2022-09-13T02:27:28;28.52;;;7.35;;
42514;SDS011;28144;49.920;18.730;2022-09-13T02:29:57;11.65;;;7.72;;
42514;SDS011;28144;49.920;18.730;2022-09-13T02:32:40;18.23;;;8.57;;
42514;SDS011;28144;49.920;18.730;2022-09-13T02:35:30;12.52;;;7.80;;
42514;SDS011;28144;49.920;18.730;2022-09-13T02:38:00;12.63;;;7.15;;
42514;SDS011;28144;49.920;18.730;2022-09-13T02:40:31;10.55;;;6.65;;
42514;SDS011;28144;49.920;18.730;2022-09-13T02:43:13;14.70;;;8.00;;
42514;SDS011;28144;49.920;18.730;2022-09-13T02:45:51;17.20;;;7.47;;
42514;SDS011;28144;49.920;18.730;2022-09-13T02:48:32;12.05;;;7.55;;
42514;SDS011;28144;49.920;18.730;2022-09-13T02:51:02;13.32;;;7.45;;
42514;SDS011;28144;49.920;18.730;2022-09-13T02:56:38;11.52;;;7.35;;
42514;SDS011;28144;49.920;18.730;2022-09-13T02:59:04;10.75;;;7.70;;
42514;SDS011;28144;49.920;18.730;2022-09-13T03:01:33;10.00;;;6.80;;
42514;SDS011;28144;49.920;18.730;2022-09-13T03:04:00;10.40;;;7.22;;
42514;SDS011;28144;49.920;18.730;2022-09-13T03:06:27;9.18;;;6.70;;
42514;SDS011;28144;49.920;18.730;2022-09-13T03:08:54;26.15;;;8.38;;
42514;SDS011;28144;49.920;18.730;2022-09-13T03:11:31;12.82;;;7.22;;
42514;SDS011;28144;49.920;18.730;2022-09-13T03:14:26;17.60;;;7.68;;
42514;SDS011;28144;49.920;18.730;2022-09-13T03:17:17;18.13;;;7.97;;
42514;SDS011;28144;49.920;18.730;2022-09-13T03:20:11;10.77;;;7.03;;
42514;SDS011;28144;49.920;18.730;2022-09-13T03:23:03;10.88;;;7.57;;
42514;SDS011;28144;49.920;18.730;2022-09-13T03:26:11;12.48;;;7.00;;
42514;SDS011;28144;49.920;18.730;2022-09-13T03:31:27;13.95;;;7.10;;
42514;SDS011;28144;49.920;18.730;2022-09-13T03:34:17;11.10;;;7.20;;
42514;SDS011;28144;49.920;18.730;2022-09-13T03:36:50;14.27;;;6.70;;
42514;SDS011;28144;49.920;18.730;2022-09-13T03:39:53;8.15;;;5.85;;
42514;SDS011;28144;49.920;18.730;2022-09-13T03:44:56;10.15;;;5.75;;
42514;SDS011;28144;49.920;18.730;2022-09-13T03:47:23;13.35;;;5.70;;
42514;SDS011;28144;49.920;18.730;2022-09-13T03:49:50;8.48;;;5.05;;
42514;SDS011;28144;49.920;18.730;2022-09-13T03:52:17;7.80;;;5.22;;
42514;SDS011;28144;49.920;18.730;2022-09-13T03:54:43;10.50;;;5.88;;
42514;SDS011;28144;49.920;18.730;2022-09-13T03:57:10;11.97;;;5.90;;
42514;SDS011;28144;49.920;18.730;2022-09-13T03:59:38;12.38;;;6.72;;
42514;SDS011;28144;49.920;18.730;2022-09-13T04:02:07;17.48;;;8.30;;
42514;SDS011;28144;49.920;18.730;2022-09-13T04:04:35;13.00;;;8.20;;
42514;SDS011;28144;49.920;18.730;2022-09-13T04:07:00;13.13;;;8.80;;
42514;SDS011;28144;49.920;18.730;2022-09-13T04:09:29;19.20;;;8.98;;
42514;SDS011;28144;49.920;18.730;2022-09-13T04:11:55;19.17;;;10.18;;
42514;SDS011;28144;49.920;18.730;2022-09-13T04:14:21;21.00;;;10.37;;
42514;SDS011;28144;49.920;18.730;2022-09-13T04:16:51;22.65;;;9.75;;
42514;SDS011;28144;49.920;18.730;2022-09-13T04:19:18;16.13;;;9.82;;
42514;SDS011;28144;49.920;18.730;2022-09-13T04:21:46;19.65;;;9.70;;
42514;SDS011;28144;49.920;18.730;2022-09-13T04:24:12;16.10;;;9.68;;
42514;SDS011;28144;49.920;18.730;2022-09-13T04:26:39;20.95;;;10.68;;
42514;SDS011;28144;49.920;18.730;2022-09-13T04:29:04;21.63;;;11.67;;
42514;SDS011;28144;49.920;18.730;2022-09-13T04:31:30;19.73;;;10.93;;
42514;SDS011;28144;49.920;18.730;2022-09-13T04:33:56;21.33;;;11.13;;
42514;SDS011;28144;49.920;18.730;2022-09-13T04:38:48;21.55;;;9.73;;
42514;SDS011;28144;49.920;18.730;2022-09-13T04:41:14;21.37;;;10.40;;
42514;SDS011;28144;49.920;18.730;2022-09-13T04:43:41;16.40;;;9.70;;
42514;SDS011;28144;49.920;18.730;2022-09-13T04:46:07;21.00;;;9.80;;
42514;SDS011;28144;49.920;18.730;2022-09-13T04:48:33;19.67;;;10.00;;
42514;SDS011;28144;49.920;18.730;2022-09-13T04:51:00;17.02;;;9.82;;
42514;SDS011;28144;49.920;18.730;2022-09-13T04:53:29;15.98;;;9.75;;
42514;SDS011;28144;49.920;18.730;2022-09-13T04:55:59;19.88;;;10.35;;
42514;SDS011;28144;49.920;18.730;2022-09-13T04:58:29;17.80;;;10.57;;
42514;SDS011;28144;49.920;18.730;2022-09-13T05:01:05;19.83;;;11.00;;
42514;SDS011;28144;49.920;18.730;2022-09-13T05:03:33;33.47;;;12.68;;
42514;SDS011;28144;49.920;18.730;2022-09-13T05:06:09;21.83;;;10.13;;
42514;SDS011;28144;49.920;18.730;2022-09-13T05:08:39;20.95;;;10.82;;
42514;SDS011;28144;49.920;18.730;2022-09-13T05:11:06;22.63;;;10.07;;
42514;SDS011;28144;49.920;18.730;2022-09-13T05:13:32;19.83;;;10.15;;
42514;SDS011;28144;49.920;18.730;2022-09-13T05:15:58;18.15;;;9.15;;
42514;SDS011;28144;49.920;18.730;2022-09-13T05:18:29;21.55;;;9.60;;
42514;SDS011;28144;49.920;18.730;2022-09-13T05:20:55;19.35;;;8.50;;
42514;SDS011;28144;49.920;18.730;2022-09-13T05:23:23;18.30;;;9.25;;
42514;SDS011;28144;49.920;18.730;2022-09-13T05:26:07;15.25;;;7.70;;
42514;SDS011;28144;49.920;18.730;2022-09-13T05:28:34;16.52;;;9.10;;
42514;SDS011;28144;49.920;18.730;2022-09-13T05:31:01;21.85;;;9.07;;
42514;SDS011;28144;49.920;18.730;2022-09-13T05:33:44;16.40;;;7.97;;
42514;SDS011;28144;49.920;18.730;2022-09-13T05:36:10;19.65;;;8.20;;
42514;SDS011;28144;49.920;18.730;2022-09-13T05:38:36;14.70;;;8.37;;
42514;SDS011;28144;49.920;18.730;2022-09-13T05:41:03;13.17;;;7.07;;
42514;SDS011;28144;49.920;18.730;2022-09-13T05:43:30;14.27;;;7.20;;
42514;SDS011;28144;49.920;18.730;2022-09-13T05:46:08;16.77;;;6.75;;
42514;SDS011;28144;49.920;18.730;2022-09-13T05:48:42;12.32;;;6.70;;
42514;SDS011;28144;49.920;18.730;2022-09-13T05:51:12;12.48;;;6.40;;
42514;SDS011;28144;49.920;18.730;2022-09-13T05:53:48;8.68;;;6.47;;
42514;SDS011;28144;49.920;18.730;2022-09-13T05:56:15;10.73;;;6.80;;
42514;SDS011;28144;49.920;18.730;2022-09-13T05:58:45;11.07;;;6.07;;
42514;SDS011;28144;49.920;18.730;2022-09-13T06:01:13;9.73;;;5.70;;
42514;SDS011;28144;49.920;18.730;2022-09-13T06:03:40;12.60;;;6.45;;
42514;SDS011;28144;49.920;18.730;2022-09-13T06:06:06;9.20;;;6.33;;
42514;SDS011;28144;49.920;18.730;2022-09-13T06:08:33;7.70;;;5.53;;
42514;SDS011;28144;49.920;18.730;2022-09-13T06:11:00;12.93;;;6.05;;
42514;SDS011;28144;49.920;18.730;2022-09-13T06:13:33;6.28;;;5.25;;
42514;SDS011;28144;49.920;18.730;2022-09-13T06:15:59;8.38;;;6.13;;
42514;SDS011;28144;49.920;18.730;2022-09-13T06:18:26;13.85;;;6.20;;
42514;SDS011;28144;49.920;18.730;2022-09-13T06:21:02;8.73;;;5.50;;
42514;SDS011;28144;49.920;18.730;2022-09-13T06:23:29;9.38;;;5.80;;
42514;SDS011;28144;49.920;18.730;2022-09-13T06:28:32;12.68;;;5.75;;
42514;SDS011;28144;49.920;18.730;2022-09-13T06:30:58;9.75;;;6.30;;
42514;SDS011;28144;49.920;18.730;2022-09-13T06:36:01;10.13;;;5.90;;
42514;SDS011;28144;49.920;18.730;2022-09-13T06:38:27;10.60;;;6.07;;
42514;SDS011;28144;49.920;18.730;2022-09-13T06:41:09;7.93;;;5.50;;
42514;SDS011;28144;49.920;18.730;2022-09-13T06:43:36;9.10;;;5.30;;
42514;SDS011;28144;49.920;18.730;2022-09-13T06:46:04;6.47;;;4.95;;
42514;SDS011;28144;49.920;18.730;2022-09-13T06:48:31;9.55;;;5.22;;
42514;SDS011;28144;49.920;18.730;2022-09-13T06:50:59;8.20;;;4.97;;
42514;SDS011;28144;49.920;18.730;2022-09-13T06:53:26;8.73;;;5.90;;
42514;SDS011;28144;49.920;18.730;2022-09-13T06:56:07;7.72;;;5.25;;
42514;SDS011;28144;49.920;18.730;2022-09-13T06:58:36;9.82;;;6.22;;
42514;SDS011;28144;49.920;18.730;2022-09-13T07:01:06;7.30;;;4.78;;
42514;SDS011;28144;49.920;18.730;2022-09-13T07:03:36;7.80;;;4.95;;
42514;SDS011;28144;49.920;18.730;2022-09-13T07:06:07;10.50;;;4.88;;
42514;SDS011;28144;49.920;18.730;2022-09-13T07:08:43;7.85;;;4.75;;
42514;SDS011;28144;49.920;18.730;2022-09-13T07:11:10;7.63;;;4.90;;
42514;SDS011;28144;49.920;18.730;2022-09-13T07:13:38;10.23;;;5.45;;
42514;SDS011;28144;49.920;18.730;2022-09-13T07:18:31;8.35;;;4.78;;
42514;SDS011;28144;49.920;18.730;2022-09-13T07:23:24;8.82;;;4.70;;
42514;SDS011;28144;49.920;18.730;2022-09-13T07:25:54;6.97;;;4.53;;
42514;SDS011;28144;49.920;18.730;2022-09-13T07:28:20;7.60;;;5.28;;
42514;SDS011;28144;49.920;18.730;2022-09-13T07:30:46;7.33;;;4.47;;
42514;SDS011;28144;49.920;18.730;2022-09-13T07:33:12;5.68;;;4.38;;
42514;SDS011;28144;49.920;18.730;2022-09-13T07:35:38;7.35;;;4.35;;
42514;SDS011;28144;49.920;18.730;2022-09-13T07:38:03;6.80;;;4.80;;
42514;SDS011;28144;49.920;18.730;2022-09-13T07:40:29;6.18;;;4.00;;
42514;SDS011;28144;49.920;18.730;2022-09-13T07:42:55;5.00;;;3.47;;
42514;SDS011;28144;49.920;18.730;2022-09-13T07:45:20;5.83;;;4.40;;
42514;SDS011;28144;49.920;18.730;2022-09-13T07:47:48;5.95;;;3.67;;
42514;SDS011;28144;49.920;18.730;2022-09-13T07:50:17;4.75;;;3.70;;
42514;SDS011;28144;49.920;18.730;2022-09-13T07:52:43;6.10;;;3.20;;
42514;SDS011;28144;49.920;18.730;2022-09-13T07:55:09;4.33;;;3.07;;
42514;SDS011;28144;49.920;18.730;2022-09-13T07:57:34;4.90;;;2.77;;
42514;SDS011;28144;49.920;18.730;2022-09-13T08:00:00;4.27;;;3.00;;
42514;SDS011;28144;49.920;18.730;2022-09-13T08:02:26;4.38;;;3.22;;
42514;SDS011;28144;49.920;18.730;2022-09-13T08:04:53;5.95;;;3.10;;
42514;SDS011;28144;49.920;18.730;2022-09-13T08:07:19;6.33;;;3.30;;
42514;SDS011;28144;49.920;18.730;2022-09-13T08:09:45;7.45;;;2.65;;
42514;SDS011;28144;49.920;18.730;2022-09-13T08:12:11;5.27;;;3.27;;
42514;SDS011;28144;49.920;18.730;2022-09-13T08:14:37;5.77;;;2.97;;
42514;SDS011;28144;49.920;18.730;2022-09-13T08:17:02;6.75;;;2.88;;
42514;SDS011;28144;49.920;18.730;2022-09-13T08:19:28;12.20;;;3.73;;
42514;SDS011;28144;49.920;18.730;2022-09-13T08:21:54;4.80;;;3.10;;
42514;SDS011;28144;49.920;18.730;2022-09-13T08:24:20;9.40;;;3.83;;
42514;SDS011;28144;49.920;18.730;2022-09-13T08:26:46;9.82;;;4.28;;
42514;SDS011;28144;49.920;18.730;2022-09-13T08:29:12;7.32;;;3.75;;
42514;SDS011;28144;49.920;18.730;2022-09-13T08:31:38;11.98;;;4.68;;
42514;SDS011;28144;49.920;18.730;2022-09-13T08:34:04;7.73;;;3.73;;
42514;SDS011;28144;49.920;18.730;2022-09-13T08:36:29;9.00;;;3.87;;
42514;SDS011;28144;49.920;18.730;2022-09-13T08:38:56;13.05;;;4.88;;
42514;SDS011;28144;49.920;18.730;2022-09-13T08:44:17;12.07;;;5.05;;
42514;SDS011;28144;49.920;18.730;2022-09-13T08:46:50;12.37;;;5.10;;
42514;SDS011;28144;49.920;18.730;2022-09-13T08:49:39;9.43;;;5.40;;
42514;SDS011;28144;49.920;18.730;2022-09-13T08:55:07;15.20;;;5.10;;
42514;SDS011;28144;49.920;18.730;2022-09-13T08:58:07;9.80;;;4.82;;
42514;SDS011;28144;49.920;18.730;2022-09-13T09:00:37;8.88;;;4.43;;
42514;SDS011;28144;49.920;18.730;2022-09-13T09:03:15;7.13;;;3.75;;
42514;SDS011;28144;49.920;18.730;2022-09-13T09:05:49;7.07;;;3.53;;
42514;SDS011;28144;49.920;18.730;2022-09-13T09:08:23;11.38;;;2.90;;
42514;SDS011;28144;49.920;18.730;2022-09-13T09:11:01;5.32;;;2.65;;
42514;SDS011;28144;49.920;18.730;2022-09-13T09:13:32;4.63;;;2.00;;
42514;SDS011;28144;49.920;18.730;2022-09-13T09:16:03;4.50;;;2.28;;
42514;SDS011;28144;49.920;18.730;2022-09-13T09:18:37;4.72;;;2.10;;
42514;SDS011;28144;49.920;18.730;2022-09-13T09:21:06;7.35;;;2.03;;
42514;SDS011;28144;49.920;18.730;2022-09-13T09:23:49;3.08;;;2.10;;
42514;SDS011;28144;49.920;18.730;2022-09-13T09:26:17;4.60;;;1.80;;
42514;SDS011;28144;49.920;18.730;2022-09-13T09:39:26;2.63;;;1.80;;
42514;SDS011;28144;49.920;18.730;2022-09-13T09:41:56;2.45;;;1.67;;
42514;SDS011;28144;49.920;18.730;2022-09-13T09:44:24;5.28;;;2.03;;
42514;SDS011;28144;49.920;18.730;2022-09-13T09:50:13;3.55;;;1.73;;
42514;SDS011;28144;49.920;18.730;2022-09-13T10:00:28;5.60;;;2.00;;
42514;SDS011;28144;49.920;18.730;2022-09-13T10:02:56;3.00;;;2.22;;
42514;SDS011;28144;49.920;18.730;2022-09-13T10:05:24;3.20;;;2.25;;
42514;SDS011;28144;49.920;18.730;2022-09-13T10:07:51;4.82;;;2.17;;
42514;SDS011;28144;49.920;18.730;2022-09-13T10:10:20;4.78;;;1.90;;
42514;SDS011;28144;49.920;18.730;2022-09-13T10:12:50;2.60;;;2.05;;
42514;SDS011;28144;49.920;18.730;2022-09-13T10:15:18;4.00;;;2.20;;
42514;SDS011;28144;49.920;18.730;2022-09-13T10:18:04;5.95;;;2.05;;
42514;SDS011;28144;49.920;18.730;2022-09-13T10:20:34;5.88;;;2.58;;
42514;SDS011;28144;49.920;18.730;2022-09-13T10:23:16;4.93;;;2.72;;
42514;SDS011;28144;49.920;18.730;2022-09-13T10:25:45;3.17;;;2.10;;
42514;SDS011;28144;49.920;18.730;2022-09-13T10:28:24;4.47;;;2.70;;
42514;SDS011;28144;49.920;18.730;2022-09-13T10:33:23;6.25;;;2.42;;
42514;SDS011;28144;49.920;18.730;2022-09-13T10:35:51;6.55;;;2.10;;
42514;SDS011;28144;49.920;18.730;2022-09-13T10:38:23;4.90;;;2.03;;
42514;SDS011;28144;49.920;18.730;2022-09-13T10:40:51;3.63;;;1.77;;
42514;SDS011;28144;49.920;18.730;2022-09-13T10:43:17;5.07;;;2.70;;
42514;SDS011;28144;49.920;18.730;2022-09-13T10:45:47;4.20;;;2.20;;
42514;SDS011;28144;49.920;18.730;2022-09-13T10:48:15;3.40;;;2.30;;
42514;SDS011;28144;49.920;18.730;2022-09-13T10:53:41;2.85;;;2.33;;
42514;SDS011;28144;49.920;18.730;2022-09-13T10:56:24;5.43;;;2.60;;
42514;SDS011;28144;49.920;18.730;2022-09-13T10:58:50;2.70;;;2.17;;
42514;SDS011;28144;49.920;18.730;2022-09-13T11:07:14;3.13;;;1.85;;
42514;SDS011;28144;49.920;18.730;2022-09-13T11:15:05;2.72;;;1.73;;
42514;SDS011;28144;49.920;18.730;2022-09-13T11:29:02;2.85;;;2.00;;
42514;SDS011;28144;49.920;18.730;2022-09-13T11:34:40;2.67;;;1.77;;
42514;SDS011;28144;49.920;18.730;2022-09-13T11:40:15;2.38;;;1.77;;
42514;SDS011;28144;49.920;18.730;2022-09-13T11:43:07;3.40;;;1.65;;
42514;SDS011;28144;49.920;18.730;2022-09-13T11:46:04;3.58;;;1.70;;
42514;SDS011;28144;49.920;18.730;2022-09-13T11:54:25;2.38;;;1.70;;
42514;SDS011;28144;49.920;18.730;2022-09-13T11:57:13;1.73;;;1.63;;
42514;SDS011;28144;49.920;18.730;2022-09-13T12:00:03;4.82;;;2.08;;
42514;SDS011;28144;49.920;18.730;2022-09-13T12:02:53;3.92;;;2.00;;
42514;SDS011;28144;49.920;18.730;2022-09-13T12:05:39;4.33;;;2.10;;
42514;SDS011;28144;49.920;18.730;2022-09-13T12:13:20;2.35;;;1.90;;
42514;SDS011;28144;49.920;18.730;2022-09-13T12:15:50;3.33;;;2.00;;
42514;SDS011;28144;49.920;18.730;2022-09-13T12:20:49;3.15;;;2.22;;
42514;SDS011;28144;49.920;18.730;2022-09-13T12:23:22;2.30;;;2.10;;
42514;SDS011;28144;49.920;18.730;2022-09-13T12:25:57;2.80;;;2.03;;
42514;SDS011;28144;49.920;18.730;2022-09-13T12:28:43;2.20;;;2.00;;
42514;SDS011;28144;49.920;18.730;2022-09-13T12:31:25;4.35;;;1.77;;
42514;SDS011;28144;49.920;18.730;2022-09-13T12:33:51;3.78;;;1.98;;
42514;SDS011;28144;49.920;18.730;2022-09-13T12:36:31;2.30;;;2.10;;
42514;SDS011;28144;49.920;18.730;2022-09-13T12:44:39;2.72;;;1.92;;
42514;SDS011;28144;49.920;18.730;2022-09-13T12:53:29;3.28;;;1.92;;
42514;SDS011;28144;49.920;18.730;2022-09-13T12:58:28;2.70;;;2.25;;
42514;SDS011;28144;49.920;18.730;2022-09-13T13:01:14;3.53;;;2.40;;
42514;SDS011;28144;49.920;18.730;2022-09-13T13:03:44;4.07;;;1.63;;
42514;SDS011;28144;49.920;18.730;2022-09-13T13:09:04;3.47;;;2.17;;
42514;SDS011;28144;49.920;18.730;2022-09-13T13:11:45;4.88;;;1.98;;
42514;SDS011;28144;49.920;18.730;2022-09-13T13:26:01;3.20;;;2.03;;
42514;SDS011;28144;49.920;18.730;2022-09-13T13:31:58;2.83;;;2.15;;
42514;SDS011;28144;49.920;18.730;2022-09-13T13:39:11;3.95;;;2.15;;
42514;SDS011;28144;49.920;18.730;2022-09-13T13:41:38;4.05;;;1.90;;
42514;SDS011;28144;49.920;18.730;2022-09-13T13:46:41;2.53;;;2.13;;
42514;SDS011;28144;49.920;18.730;2022-09-13T13:58:00;4.03;;;2.30;;
42514;SDS011;28144;49.920;18.730;2022-09-13T14:00:45;1.85;;;1.63;;
42514;SDS011;28144;49.920;18.730;2022-09-13T14:20:16;2.97;;;2.10;;
42514;SDS011;28144;49.920;18.730;2022-09-13T14:22:42;4.63;;;2.05;;
42514;SDS011;28144;49.920;18.730;2022-09-13T14:25:41;3.10;;;1.67;;
42514;SDS011;28144;49.920;18.730;2022-09-13T14:28:00;3.80;;;1.90;;
42514;SDS011;28144;49.920;18.730;2022-09-13T14:30:36;2.25;;;1.77;;
42514;SDS011;28144;49.920;18.730;2022-09-13T14:33:03;3.78;;;2.10;;
42514;SDS011;28144;49.920;18.730;2022-09-13T14:35:33;3.72;;;1.70;;
42514;SDS011;28144;49.920;18.730;2022-09-13T14:40:37;2.85;;;1.90;;
42514;SDS011;28144;49.920;18.730;2022-09-13T14:43:13;3.00;;;1.80;;
42514;SDS011;28144;49.920;18.730;2022-09-13T14:45:40;4.00;;;2.05;;
42514;SDS011;28144;49.920;18.730;2022-09-13T14:48:09;2.20;;;1.83;;
42514;SDS011;28144;49.920;18.730;2022-09-13T14:50:40;4.60;;;1.92;;
42514;SDS011;28144;49.920;18.730;2022-09-13T14:53:12;7.05;;;2.42;;
42514;SDS011;28144;49.920;18.730;2022-09-13T14:56:24;4.65;;;1.92;;
42514;SDS011;28144;49.920;18.730;2022-09-13T15:01:11;5.07;;;2.00;;
42514;SDS011;28144;49.920;18.730;2022-09-13T15:03:40;3.42;;;1.80;;
42514;SDS011;28144;49.920;18.730;2022-09-13T15:06:17;5.90;;;1.83;;
42514;SDS011;28144;49.920;18.730;2022-09-13T15:08:52;4.65;;;1.80;;
42514;SDS011;28144;49.920;18.730;2022-09-13T15:11:27;4.78;;;2.10;;
42514;SDS011;28144;49.920;18.730;2022-09-13T15:14:13;2.70;;;1.85;;
42514;SDS011;28144;49.920;18.730;2022-09-13T15:16:49;4.25;;;2.20;;
42514;SDS011;28144;49.920;18.730;2022-09-13T15:21:52;3.22;;;2.00;;
42514;SDS011;28144;49.920;18.730;2022-09-13T15:24:28;2.35;;;1.95;;
42514;SDS011;28144;49.920;18.730;2022-09-13T15:29:31;2.72;;;1.90;;
42514;SDS011;28144;49.920;18.730;2022-09-13T15:32:00;3.45;;;2.00;;
42514;SDS011;28144;49.920;18.730;2022-09-13T15:34:26;9.10;;;2.03;;
42514;SDS011;28144;49.920;18.730;2022-09-13T15:39:24;3.67;;;2.17;;
42514;SDS011;28144;49.920;18.730;2022-09-13T15:41:54;2.08;;;1.77;;
42514;SDS011;28144;49.920;18.730;2022-09-13T15:44:22;3.03;;;1.90;;
42514;SDS011;28144;49.920;18.730;2022-09-13T15:46:49;5.22;;;1.92;;
42514;SDS011;28144;49.920;18.730;2022-09-13T15:49:23;2.42;;;1.90;;
42514;SDS011;28144;49.920;18.730;2022-09-13T15:51:52;2.05;;;1.80;;
42514;SDS011;28144;49.920;18.730;2022-09-13T15:54:20;5.15;;;1.90;;
42514;SDS011;28144;49.920;18.730;2022-09-13T15:56:48;2.88;;;1.70;;
42514;SDS011;28144;49.920;18.730;2022-09-13T15:59:18;2.58;;;1.67;;
42514;SDS011;28144;49.920;18.730;2022-09-13T16:01:49;2.05;;;1.85;;
42514;SDS011;28144;49.920;18.730;2022-09-13T16:04:15;5.15;;;2.15;;
42514;SDS011;28144;49.920;18.730;2022-09-13T16:06:41;5.47;;;1.70;;
42514;SDS011;28144;49.920;18.730;2022-09-13T16:09:17;3.03;;;1.70;;
42514;SDS011;28144;49.920;18.730;2022-09-13T16:11:48;2.47;;;1.88;;
42514;SDS011;28144;49.920;18.730;2022-09-13T16:14:14;2.17;;;1.50;;
42514;SDS011;28144;49.920;18.730;2022-09-13T16:16:40;4.18;;;2.15;;
42514;SDS011;28144;49.920;18.730;2022-09-13T16:19:09;3.17;;;1.90;;
42514;SDS011;28144;49.920;18.730;2022-09-13T16:21:38;4.30;;;1.88;;
42514;SDS011;28144;49.920;18.730;2022-09-13T16:24:04;3.93;;;2.03;;
42514;SDS011;28144;49.920;18.730;2022-09-13T16:26:30;4.57;;;2.03;;
42514;SDS011;28144;49.920;18.730;2022-09-13T16:28:55;2.38;;;1.70;;
42514;SDS011;28144;49.920;18.730;2022-09-13T16:31:21;2.63;;;1.70;;
42514;SDS011;28144;49.920;18.730;2022-09-13T16:33:47;6.85;;;1.98;;
42514;SDS011;28144;49.920;18.730;2022-09-13T16:36:12;6.10;;;1.80;;
42514;SDS011;28144;49.920;18.730;2022-09-13T16:38:38;3.57;;;2.10;;
42514;SDS011;28144;49.920;18.730;2022-09-13T16:41:04;4.85;;;1.92;;
42514;SDS011;28144;49.920;18.730;2022-09-13T16:43:30;4.20;;;1.98;;
42514;SDS011;28144;49.920;18.730;2022-09-13T16:45:57;2.25;;;1.92;;
42514;SDS011;28144;49.920;18.730;2022-09-13T16:48:24;3.35;;;2.17;;
42514;SDS011;28144;49.920;18.730;2022-09-13T16:50:49;7.20;;;2.15;;
42514;SDS011;28144;49.920;18.730;2022-09-13T16:53:16;11.88;;;2.08;;
42514;SDS011;28144;49.920;18.730;2022-09-13T16:55:42;3.33;;;2.10;;
42514;SDS011;28144;49.920;18.730;2022-09-13T16:58:10;6.15;;;2.15;;
42514;SDS011;28144;49.920;18.730;2022-09-13T17:00:35;4.28;;;2.53;;
42514;SDS011;28144;49.920;18.730;2022-09-13T17:03:01;4.97;;;2.20;;
42514;SDS011;28144;49.920;18.730;2022-09-13T17:05:27;6.87;;;2.30;;
42514;SDS011;28144;49.920;18.730;2022-09-13T17:07:52;10.63;;;2.27;;
42514;SDS011;28144;49.920;18.730;2022-09-13T17:10:19;5.50;;;2.78;;
42514;SDS011;28144;49.920;18.730;2022-09-13T17:12:45;4.18;;;2.45;;
42514;SDS011;28144;49.920;18.730;2022-09-13T17:15:11;7.38;;;2.75;;
42514;SDS011;28144;49.920;18.730;2022-09-13T17:17:37;4.25;;;3.20;;
42514;SDS011;28144;49.920;18.730;2022-09-13T17:20:04;6.40;;;3.42;;
42514;SDS011;28144;49.920;18.730;2022-09-13T17:22:33;4.20;;;2.47;;
42514;SDS011;28144;49.920;18.730;2022-09-13T17:24:59;7.90;;;3.83;;
42514;SDS011;28144;49.920;18.730;2022-09-13T17:27:25;7.80;;;3.67;;
42514;SDS011;28144;49.920;18.730;2022-09-13T17:29:51;5.35;;;3.63;;
42514;SDS011;28144;49.920;18.730;2022-09-13T17:32:18;7.60;;;3.92;;
42514;SDS011;28144;49.920;18.730;2022-09-13T17:34:44;6.60;;;4.05;;
42514;SDS011;28144;49.920;18.730;2022-09-13T17:37:11;11.30;;;4.47;;
42514;SDS011;28144;49.920;18.730;2022-09-13T17:39:37;7.35;;;4.55;;
42514;SDS011;28144;49.920;18.730;2022-09-13T17:42:03;7.67;;;3.93;;
42514;SDS011;28144;49.920;18.730;2022-09-13T17:44:31;7.10;;;4.38;;
42514;SDS011;28144;49.920;18.730;2022-09-13T17:46:57;5.68;;;3.92;;
42514;SDS011;28144;49.920;18.730;2022-09-13T17:49:23;12.68;;;3.85;;
42514;SDS011;28144;49.920;18.730;2022-09-13T17:51:49;6.23;;;3.67;;
42514;SDS011;28144;49.920;18.730;2022-09-13T17:54:14;17.52;;;3.45;;
42514;SDS011;28144;49.920;18.730;2022-09-13T17:56:41;5.07;;;3.23;;
42514;SDS011;28144;49.920;18.730;2022-09-13T17:59:08;5.47;;;2.85;;
42514;SDS011;28144;49.920;18.730;2022-09-13T18:01:35;7.88;;;3.25;;
42514;SDS011;28144;49.920;18.730;2022-09-13T18:04:06;7.25;;;3.35;;
42514;SDS011;28144;49.920;18.730;2022-09-13T18:06:32;7.28;;;3.08;;
42514;SDS011;28144;49.920;18.730;2022-09-13T18:08:59;4.95;;;3.47;;
42514;SDS011;28144;49.920;18.730;2022-09-13T18:11:25;5.37;;;2.97;;
42514;SDS011;28144;49.920;18.730;2022-09-13T18:13:51;7.00;;;3.00;;
42514;SDS011;28144;49.920;18.730;2022-09-13T18:16:18;6.53;;;3.13;;